Time;durP1;ratioP1;P1;durP2;ratioP2;P2;SDS_P1;SDS_P2;PMS_P1;PMS_P2;Temp;Humidity;BMP_temperature;BMP_pressure;BME280_temperature;BME280_humidity;BME280_pressure;Samples;Min_cycle;Max_cycle;Signal;HPM_P1;HPM_P2
2022/08/22 00:02:03;;;;;;;16.35;6.30;;;;;;;15.20;86.47;100500.69;1662001;85;21093;-74
2022/08/22 00:04:55;;;;;;;7.90;3.08;;;;;;;15.06;86.44;100483.63;1637632;85;21051;-74
2022/08/22 00:07:36;;;;;;;11.25;4.10;;;;;;;15.16;86.42;100502.94;1653490;85;21590;-74
2022/08/22 00:10:17;;;;;;;10.78;3.45;;;;;;;15.14;86.35;100500.94;1648911;86;21090;-74
2022/08/22 00:13:15;;;;;;;11.85;3.62;;;;;;;15.15;86.34;100501.78;1671035;85;21841;-74
2022/08/22 00:16:08;;;;;;;10.05;3.35;;;;;;;15.11;86.30;100501.34;1670481;85;21177;-74
2022/08/22 00:18:43;;;;;;;6.30;3.00;;;;;;;15.14;86.30;100503.62;1613193;86;21072;-74
2022/08/22 00:21:29;;;;;;;7.40;3.15;;;;;;;15.11;86.29;100498.66;1645609;85;21122;-74
2022/08/22 00:24:24;;;;;;;9.05;3.60;;;;;;;15.10;86.25;100503.70;1642119;86;21008;-74
2022/08/22 00:27:04;;;;;;;8.03;2.80;;;;;;;15.07;86.23;100504.09;1638353;87;21032;-74
2022/08/22 00:29:50;;;;;;;;;;;;;;;15.07;86.24;100506.78;1642257;86;21098;-74
2022/08/22 00:32:30;;;;;;;7.00;3.35;;;;;;;15.06;86.23;100509.14;1630632;87;20161;-75
2022/08/22 00:35:02;;;;;;;5.42;3.10;;;;;;;15.05;86.21;100512.88;1638248;87;21005;-74
2022/08/22 00:37:38;;;;;;;8.15;2.95;;;;;;;15.07;86.20;100511.32;1603692;87;21035;-74
2022/08/22 00:40:25;;;;;;;5.10;3.62;;;;;;;15.08;86.19;100513.83;1606473;87;21197;-75
2022/08/22 00:43:18;;;;;;;7.53;3.58;;;;;;;15.08;86.20;100507.62;1608845;87;21037;-74
2022/08/22 00:46:12;;;;;;;5.97;3.87;;;;;;;15.07;86.18;100514.84;1618878;87;21011;-74
2022/08/22 00:48:50;;;;;;;6.62;3.58;;;;;;;15.06;86.03;100510.48;1619321;87;21504;-74
2022/08/22 00:52:05;;;;;;;5.33;3.70;;;;;;;15.07;86.17;100516.19;1618463;87;21140;-73
2022/08/22 00:54:55;;;;;;;8.18;4.20;;;;;;;15.08;86.18;100515.17;1602567;87;21555;-73
2022/08/22 00:57:36;;;;;;;;;;;;;;;15.09;86.20;100517.34;1617536;87;21122;-74
2022/08/22 01:00:14;;;;;;;7.65;3.37;;;;;;;15.09;86.20;100516.84;1615663;87;20180;-73
2022/08/22 01:03:10;;;;;;;8.83;3.62;;;;;;;15.08;86.32;100526.42;1615631;87;21038;-74
2022/08/22 01:05:56;;;;;;;9.78;3.65;;;;;;;15.08;86.18;100520.54;1616595;87;21078;-73
2022/08/22 01:08:54;;;;;;;7.37;3.55;;;;;;;15.08;86.18;100520.54;1616389;87;39233;-74
2022/08/22 01:11:45;;;;;;;7.75;3.42;;;;;;;15.05;86.25;100523.62;1599499;87;21027;-73
2022/08/22 01:14:29;;;;;;;6.67;3.80;;;;;;;15.05;86.25;100523.62;1616299;87;21062;-73
2022/08/22 01:17:18;;;;;;;6.53;3.77;;;;;;;15.06;86.23;100529.29;1609834;87;21051;-73
2022/08/22 01:20:29;;;;;;;8.60;4.50;;;;;;;15.07;86.23;100527.44;1615541;87;21085;-74
2022/08/22 01:23:46;;;;;;;8.38;4.97;;;;;;;14.95;86.39;100506.48;1652828;85;21514;-74
2022/08/22 01:27:06;;;;;;;5.62;3.35;;;;;;;14.95;86.39;100506.48;1705163;83;21037;-73
2022/08/22 01:29:57;;;;;;;;;;;;;;;15.09;86.29;100530.27;1706381;83;21576;-73
2022/08/22 01:33:08;;;;;;;9.63;3.92;;;;;;;15.13;86.31;100535.54;1692827;83;20183;-74
2022/08/22 01:36:07;;;;;;;8.28;3.90;;;;;;;15.12;86.34;100534.41;1691184;83;20995;-74
2022/08/22 01:39:04;;;;;;;4.95;3.92;;;;;;;15.11;86.34;100534.92;1691216;83;21196;-74
2022/08/22 01:41:41;;;;;;;5.03;3.50;;;;;;;15.10;86.35;100534.59;1695947;83;21484;-74
2022/08/22 01:44:40;;;;;;;9.20;3.70;;;;;;;14.99;86.44;100509.61;1695768;83;20992;-74
2022/08/22 01:47:19;;;;;;;7.00;3.43;;;;;;;14.99;86.44;100509.61;1695324;83;22512;-74
2022/08/22 01:49:54;;;;;;;7.17;3.60;;;;;;;15.10;86.42;100530.56;1696375;83;21020;-74
2022/08/22 01:52:37;;;;;;;6.40;3.70;;;;;;;15.09;86.44;100535.64;1695987;83;21053;-74
2022/08/22 01:55:38;;;;;;;6.45;3.60;;;;;;;15.08;86.48;100539.85;1696021;83;20990;-73
2022/08/22 01:58:22;;;;;;;5.78;3.87;;;;;;;14.97;86.39;100522.42;1685880;83;21110;-73
2022/08/22 02:01:08;;;;;;;7.50;3.67;;;;;;;15.09;86.58;100545.05;1705952;83;21030;-74
2022/08/22 02:03:40;;;;;;;5.35;3.72;;;;;;;15.08;86.56;100547.41;1705050;83;21447;-74
2022/08/22 02:06:14;;;;;;;5.12;3.50;;;;;;;15.09;86.60;100546.89;1723447;83;21095;-73
2022/08/22 02:08:51;;;;;;;6.83;3.65;;;;;;;14.97;86.53;100520.56;1724267;83;21064;-73
2022/08/22 02:11:38;;;;;;;9.58;3.65;;;;;;;15.08;86.67;100542.03;1684139;83;21485;-73
2022/08/22 02:14:18;;;;;;;8.73;3.62;;;;;;;15.09;86.71;100543.70;1712588;83;21037;-74
2022/08/22 02:16:47;;;;;;;;;;;;;;;14.96;86.85;100526.95;1727011;83;21041;-73
2022/08/22 02:19:18;;;;;;;9.08;4.08;;;;;;;15.05;86.80;100543.77;1723718;83;21151;-73
2022/08/22 02:22:28;;;;;;;7.37;4.10;;;;;;;15.04;86.82;100544.78;1720532;83;20958;-73
2022/08/22 02:25:16;;;;;;;;;;;;;;;15.03;86.83;100552.52;1684870;83;21045;-73
2022/08/22 02:28:03;;;;;;;6.87;3.83;;;;;;;15.01;86.87;100551.89;1717423;83;20129;-74
2022/08/22 02:30:54;;;;;;;8.70;4.00;;;;;;;14.96;86.90;100540.89;1709952;83;21520;-73
2022/08/22 02:33:34;;;;;;;6.62;4.00;;;;;;;15.02;86.96;100546.84;1680801;83;21486;-73
2022/08/22 02:36:20;;;;;;;7.87;4.03;;;;;;;15.02;87.00;100543.33;1680649;83;21071;-73
2022/08/22 02:39:30;;;;;;;6.65;3.95;;;;;;;15.08;87.05;100551.94;1681692;83;21080;-74
2022/08/22 02:42:25;;;;;;;4.85;3.65;;;;;;;15.11;87.07;100553.72;1700863;83;21522;-74
2022/08/22 02:45:18;;;;;;;9.85;3.52;;;;;;;15.13;87.09;100553.00;1659498;83;21004;-74
2022/08/22 02:47:58;;;;;;;8.08;3.52;;;;;;;15.06;87.13;100545.41;1655419;86;21161;-74
2022/08/22 02:50:39;;;;;;;6.67;3.90;;;;;;;15.04;87.17;100551.50;1607936;86;21090;-74
2022/08/22 02:53:22;;;;;;;6.05;4.05;;;;;;;15.02;87.23;100549.53;1641377;86;21032;-74
2022/08/22 02:56:31;;;;;;;7.55;4.35;;;;;;;15.01;87.33;100547.86;1631461;86;21062;-74
2022/08/22 02:59:13;;;;;;;5.33;3.90;;;;;;;15.05;87.40;100550.48;1649690;86;21059;-74
2022/08/22 03:01:43;;;;;;;7.90;4.00;;;;;;;15.10;87.40;100549.37;1634216;86;21529;-74
2022/08/22 03:04:34;;;;;;;6.22;4.00;;;;;;;15.11;87.42;100547.52;1650794;86;21571;-74
2022/08/22 03:07:08;;;;;;;7.20;4.20;;;;;;;15.12;87.42;100549.19;1640222;86;21069;-74
2022/08/22 03:09:46;;;;;;;5.40;3.77;;;;;;;15.13;87.42;100543.59;1641141;86;21111;-74
2022/08/22 03:12:36;;;;;;;8.50;4.75;;;;;;;15.17;87.45;100547.56;1641629;86;21097;-74
2022/08/22 03:15:13;;;;;;;5.60;3.42;;;;;;;15.21;87.46;100546.66;1644227;86;21877;-74
2022/08/22 03:17:53;;;;;;;7.35;3.77;;;;;;;15.20;87.51;100547.16;1647564;86;21154;-74
2022/08/22 03:20:47;;;;;;;4.40;3.60;;;;;;;15.16;87.59;100545.92;1647777;86;21049;-74
2022/08/22 03:23:37;;;;;;;6.58;3.42;;;;;;;15.16;87.59;100545.92;1641976;86;21064;-74
2022/08/22 03:26:25;;;;;;;;;;;;;;;14.94;87.56;100509.39;1652302;86;20962;-75
2022/08/22 03:29:05;;;;;;;5.65;3.87;;;;;;;15.12;87.54;100545.99;1651196;86;21912;-75
2022/08/22 03:31:31;;;;;;;5.15;3.50;;;;;;;15.11;87.54;100551.55;1656147;86;21076;-75
2022/08/22 03:34:21;;;;;;;7.33;3.55;;;;;;;15.10;87.54;100549.37;1651178;86;21060;-75
2022/08/22 03:36:59;;;;;;;;;;;;;;;15.09;87.45;100547.73;1641320;86;21039;-75
2022/08/22 03:39:46;;;;;;;7.10;3.95;;;;;;;15.08;87.53;100547.41;1640988;86;20215;-75
2022/08/22 03:42:54;;;;;;;5.65;3.83;;;;;;;15.05;87.53;100542.42;1640763;86;21266;-75
2022/08/22 03:45:41;;;;;;;7.90;3.58;;;;;;;15.03;87.51;100543.11;1640631;86;21555;-75
2022/08/22 03:48:21;;;;;;;8.45;4.28;;;;;;;15.00;87.50;100556.94;1565367;87;21031;-75
2022/08/22 03:51:18;;;;;;;5.85;3.10;;;;;;;14.96;87.50;100553.81;1640655;86;21012;-75
2022/08/22 03:54:33;;;;;;;7.95;3.35;;;;;;;14.98;87.48;100559.00;1640837;86;21560;-75
2022/08/22 03:57:31;;;;;;;6.17;3.30;;;;;;;14.94;87.47;100555.04;1640826;86;21166;-75
2022/08/22 04:00:41;;;;;;;5.58;3.40;;;;;;;14.90;87.62;100545.70;1639870;86;21492;-75
2022/08/22 04:04:02;;;;;;;6.87;3.87;;;;;;;14.90;87.62;100545.70;1639892;86;21108;-76
2022/08/22 04:06:53;;;;;;;8.45;3.40;;;;;;;14.84;87.52;100546.48;1626199;86;21079;-75
2022/08/22 04:09:42;;;;;;;7.50;3.75;;;;;;;14.78;87.49;100552.61;1640738;86;21039;-75
2022/08/22 04:12:17;;;;;;;7.62;3.20;;;;;;;14.75;87.51;100548.47;1640687;86;21157;-76
2022/08/22 04:14:57;;;;;;;5.25;3.02;;;;;;;14.76;87.67;100568.09;1623100;86;21015;-76
2022/08/22 04:17:35;;;;;;;6.72;3.90;;;;;;;14.76;87.67;100568.09;1639223;86;21031;-76
2022/08/22 04:20:20;;;;;;;5.67;3.17;;;;;;;14.78;87.57;100567.38;1646725;86;21063;-76
2022/08/22 04:23:15;;;;;;;5.45;3.12;;;;;;;14.76;87.58;100576.15;1589641;87;21035;-75
2022/08/22 04:25:52;;;;;;;8.18;3.08;;;;;;;14.75;87.62;100581.19;1616656;87;21224;-75
2022/08/22 04:28:34;;;;;;;6.08;3.58;;;;;;;14.77;87.67;100581.84;1594666;88;21052;-75
2022/08/22 04:31:10;;;;;;;6.62;3.12;;;;;;;14.80;87.72;100582.80;1616935;87;21609;-75
2022/08/22 04:33:43;;;;;;;4.03;3.00;;;;;;;14.82;87.74;100595.00;1615265;87;21542;-75
2022/08/22 04:36:25;;;;;;;5.05;3.02;;;;;;;14.82;87.71;100588.80;1616946;87;21629;-75
2022/08/22 04:39:08;;;;;;;8.80;3.52;;;;;;;14.84;87.87;100593.48;1616024;87;21835;-75
2022/08/22 04:42:03;;;;;;;6.58;3.35;;;;;;;14.84;87.87;100593.48;1616960;87;21498;-76
2022/08/22 04:44:37;;;;;;;7.58;3.65;;;;;;;14.69;87.78;100575.26;1603552;87;21074;-76
2022/08/22 04:47:28;;;;;;;4.47;3.27;;;;;;;14.69;87.78;100575.26;1613044;87;21042;-76
2022/08/22 04:50:03;;;;;;;6.10;4.08;;;;;;;14.62;87.79;100573.86;1616814;87;21039;-76
2022/08/22 04:53:07;;;;;;;6.72;3.42;;;;;;;14.64;87.84;100577.16;1617091;87;21173;-76
2022/08/22 04:56:12;;;;;;;4.35;2.62;;;;;;;14.74;87.83;100599.69;1616745;87;21479;-76
2022/08/22 04:58:57;;;;;;;8.18;3.87;;;;;;;14.73;88.14;100607.41;1616691;87;21034;-76
2022/08/22 05:01:45;;;;;;;7.92;3.33;;;;;;;14.73;88.14;100607.41;1617185;87;21016;-76
2022/08/22 05:04:17;;;;;;;6.92;3.58;;;;;;;14.65;88.13;100590.08;1596191;87;21078;-76
2022/08/22 05:06:48;;;;;;;8.03;3.42;;;;;;;14.65;88.13;100590.08;1616793;87;21194;-76
2022/08/22 05:09:19;;;;;;;5.00;2.95;;;;;;;14.76;87.96;100609.71;1616688;87;21075;-76
2022/08/22 05:11:48;;;;;;;5.40;2.77;;;;;;;14.73;87.99;100611.44;1588638;88;21569;-76
2022/08/22 05:14:22;;;;;;;3.80;2.58;;;;;;;14.72;87.97;100611.11;1613144;87;21001;-76
2022/08/22 05:16:50;;;;;;;6.12;2.67;;;;;;;14.72;88.01;100619.16;1612517;87;21100;-76
2022/08/22 05:19:24;;;;;;;3.67;2.37;;;;;;;14.71;88.06;100602.73;1614191;87;21175;-76
2022/08/22 05:21:50;;;;;;;5.90;2.70;;;;;;;14.71;88.06;100602.73;1616607;86;21075;-76
2022/08/22 05:24:24;;;;;;;5.53;3.20;;;;;;;14.69;88.07;100602.10;1660018;85;21465;-76
2022/08/22 05:26:52;;;;;;;6.40;3.20;;;;;;;14.74;88.34;100605.06;1657040;85;21479;-76
2022/08/22 05:29:22;;;;;;;4.00;2.55;;;;;;;14.74;88.34;100605.06;1658934;85;21104;-76
2022/08/22 05:31:57;;;;;;;5.47;2.77;;;;;;;14.74;88.04;100600.48;1656112;85;21170;-76
2022/08/22 05:34:27;;;;;;;6.05;3.27;;;;;;;14.74;88.04;100600.48;1653947;85;21040;-76
2022/08/22 05:37:16;;;;;;;5.47;3.12;;;;;;;14.76;88.22;100603.00;1656466;85;21086;-76
2022/08/22 05:39:46;;;;;;;4.62;2.70;;;;;;;14.76;88.25;100603.00;1658716;85;21113;-76
2022/08/22 05:42:26;;;;;;;8.75;3.00;;;;;;;14.64;88.33;100581.19;1659216;85;21562;-76
2022/08/22 05:44:53;;;;;;;8.98;4.85;;;;;;;14.64;88.33;100581.19;1658891;85;21112;-76
2022/08/22 05:47:39;;;;;;;11.30;5.58;;;;;;;14.75;88.32;100599.48;1659747;85;21060;-76
2022/08/22 05:50:19;;;;;;;8.63;3.50;;;;;;;14.77;88.40;100597.95;1658510;85;21057;-76
2022/08/22 05:53:06;;;;;;;7.45;3.60;;;;;;;14.77;88.40;100597.95;1657793;85;21070;-76
2022/08/22 05:56:04;;;;;;;8.10;3.50;;;;;;;14.79;88.44;100606.13;1659446;85;21160;-76
2022/08/22 05:58:53;;;;;;;10.18;3.67;;;;;;;14.84;88.47;100602.87;1657342;85;21200;-75
2022/08/22 06:01:36;;;;;;;5.80;3.17;;;;;;;14.80;88.45;100599.75;1660641;85;21037;-76
2022/08/22 06:04:23;;;;;;;6.78;3.58;;;;;;;14.93;88.54;100604.39;1659174;85;21080;-76
2022/08/22 06:07:03;;;;;;;6.17;4.08;;;;;;;14.98;88.57;100606.00;1659011;85;21079;-76
2022/08/22 06:10:05;;;;;;;6.10;3.58;;;;;;;14.94;88.53;100581.89;1646846;85;21035;-76
2022/08/22 06:12:42;;;;;;;8.00;3.75;;;;;;;14.94;88.53;100581.89;1655647;85;21044;-75
2022/08/22 06:15:19;;;;;;;6.87;3.25;;;;;;;15.11;88.68;100601.23;1657744;85;21326;-75
2022/08/22 06:17:50;;;;;;;8.58;4.00;;;;;;;15.02;88.68;100576.39;1657940;85;21380;-75
2022/08/22 06:20:24;;;;;;;4.67;3.37;;;;;;;15.18;88.73;100603.47;1657562;85;21068;-76
2022/08/22 06:22:55;;;;;;;8.05;4.00;;;;;;;15.26;88.49;100606.86;1675415;83;21116;-75
2022/08/22 06:25:28;;;;;;;9.28;5.33;;;;;;;15.30;88.89;100606.79;1686656;83;21188;-76
2022/08/22 06:27:55;;;;;;;9.30;3.92;;;;;;;15.34;88.93;100608.03;1686355;83;20985;-76
2022/08/22 06:30:21;;;;;;;9.33;4.08;;;;;;;15.40;88.84;100607.27;1687052;83;21021;-76
2022/08/22 06:32:51;;;;;;;5.72;4.30;;;;;;;15.44;88.83;100607.20;1687393;83;21016;-76
2022/08/22 06:38:32;;;;;;;;;;;;;;;15.54;88.87;100600.16;1688214;83;21134;-75
2022/08/22 06:40:59;;;;;;;9.55;5.67;;;;;;;15.63;88.90;100607.53;1684676;83;20421;-75
2022/08/22 06:43:32;;;;;;;7.10;4.83;;;;;;;15.66;88.88;100612.52;1685643;83;21078;-75
2022/08/22 06:45:59;;;;;;;18.60;10.53;;;;;;;15.66;88.89;100612.00;1685185;83;21607;-75
2022/08/22 06:48:25;;;;;;;12.35;5.75;;;;;;;15.72;88.91;100617.13;1686756;83;21086;-75
2022/08/22 06:50:55;;;;;;;20.68;10.53;;;;;;;15.76;88.91;100607.64;1662821;84;21230;-75
2022/08/22 06:53:37;;;;;;;17.50;8.63;;;;;;;15.79;88.88;100611.27;1659839;84;21113;-75
2022/08/22 06:56:04;;;;;;;12.00;6.15;;;;;;;15.81;88.85;100612.72;1684201;83;21488;-75
2022/08/22 06:58:43;;;;;;;7.87;4.53;;;;;;;15.85;88.87;100605.92;1686766;83;21027;-75
2022/08/22 07:01:15;;;;;;;7.60;4.75;;;;;;;15.89;88.89;100609.05;1686974;83;21092;-76
2022/08/22 07:03:49;;;;;;;8.73;4.85;;;;;;;15.91;88.84;100615.88;1681755;83;22165;-75
2022/08/22 07:06:18;;;;;;;8.75;4.22;;;;;;;15.94;88.84;100618.67;1686343;83;21072;-75
2022/08/22 07:08:44;;;;;;;7.72;4.92;;;;;;;15.98;88.86;100607.83;1683528;83;21048;-75
2022/08/22 07:11:22;;;;;;;7.25;4.45;;;;;;;16.00;88.86;100616.55;1692534;83;21037;-75
2022/08/22 07:13:53;;;;;;;7.72;4.85;;;;;;;16.03;88.85;100617.50;1680841;83;21016;-75
2022/08/22 07:16:26;;;;;;;12.07;4.78;;;;;;;16.02;88.84;100617.17;1645278;85;21113;-75
2022/08/22 07:18:53;;;;;;;8.70;4.47;;;;;;;16.03;88.83;100608.08;1638123;86;21088;-75
2022/08/22 07:21:26;;;;;;;14.10;5.37;;;;;;;16.06;88.84;100615.75;1635727;86;21530;-76
2022/08/22 07:23:53;;;;;;;6.95;4.92;;;;;;;16.12;88.85;100612.24;1614103;87;21048;-75
2022/08/22 07:26:30;;;;;;;9.45;5.28;;;;;;;16.21;88.89;100613.75;1614459;87;21027;-75
2022/08/22 07:29:16;;;;;;;9.73;4.83;;;;;;;16.26;88.85;100616.65;1616383;87;21351;-76
2022/08/22 07:32:00;;;;;;;7.95;4.87;;;;;;;16.32;88.87;100618.55;1622695;87;21016;-75
2022/08/22 07:34:41;;;;;;;8.73;5.03;;;;;;;16.36;88.87;100622.48;1628432;87;21091;-75
2022/08/22 07:37:46;;;;;;;6.15;4.72;;;;;;;16.41;88.91;100624.06;1625571;87;21062;-76
2022/08/22 07:40:36;;;;;;;6.58;4.33;;;;;;;16.42;88.93;100623.04;1615529;87;21083;-76
2022/08/22 07:43:26;;;;;;;7.65;4.65;;;;;;;16.47;88.93;100621.90;1617951;87;21286;-75
2022/08/22 07:45:57;;;;;;;;;;;;;;;16.50;88.92;100624.18;1622353;87;21091;-76
2022/08/22 07:48:32;;;;;;;16.75;8.28;;;;;;;16.55;88.92;100628.13;1617265;87;20160;-75
2022/08/22 07:51:11;;;;;;;17.80;9.08;;;;;;;16.57;88.91;100623.42;1616982;87;21101;-73
2022/08/22 07:53:42;;;;;;;19.23;9.63;;;;;;;16.58;88.92;100626.41;1617935;87;21102;-72
2022/08/22 07:56:15;;;;;;;10.75;6.72;;;;;;;16.61;88.90;100628.17;1620679;87;21193;-72
2022/08/22 07:58:42;;;;;;;16.20;8.10;;;;;;;16.63;88.88;100625.30;1612520;87;21082;-72
2022/08/22 08:01:09;;;;;;;21.12;11.08;;;;;;;16.63;88.87;100630.67;1613573;87;21097;-72
2022/08/22 08:03:35;;;;;;;12.45;6.37;;;;;;;16.68;88.89;100628.19;1611090;87;21086;-72
2022/08/22 08:06:01;;;;;;;10.63;6.00;;;;;;;16.71;88.92;100625.11;1610964;87;21073;-72
2022/08/22 08:08:40;;;;;;;7.65;5.40;;;;;;;16.73;88.91;100627.91;1597964;87;21144;-72
2022/08/22 08:11:09;;;;;;;10.93;4.65;;;;;;;16.77;88.91;100622.94;1586613;87;21089;-72
2022/08/22 08:13:39;;;;;;;9.53;5.17;;;;;;;16.78;88.90;100617.88;1627354;87;21063;-72
2022/08/22 08:16:06;;;;;;;6.87;4.67;;;;;;;16.78;88.91;100625.95;1614939;87;21078;-71
2022/08/22 08:18:33;;;;;;;7.10;4.22;;;;;;;16.80;88.92;100621.18;1591217;87;21064;-72
2022/08/22 08:21:06;;;;;;;7.55;4.67;;;;;;;16.81;88.93;100622.84;1609567;87;21557;-72
2022/08/22 08:23:40;;;;;;;8.45;4.40;;;;;;;16.84;88.92;100614.36;1611427;87;21154;-72
2022/08/22 08:26:14;;;;;;;6.97;4.15;;;;;;;16.87;88.95;100612.59;1612126;87;21076;-72
2022/08/22 08:28:45;;;;;;;9.15;4.30;;;;;;;16.90;88.92;100618.91;1612533;87;21066;-72
2022/08/22 08:31:37;;;;;;;6.80;3.80;;;;;;;16.89;88.92;100612.69;1612274;87;21030;-71
2022/08/22 08:34:11;;;;;;;9.35;4.47;;;;;;;16.95;88.93;100615.09;1612323;87;21919;-72
2022/08/22 08:36:54;;;;;;;9.73;3.72;;;;;;;16.98;88.95;100613.33;1610605;87;21058;-71
2022/08/22 08:39:28;;;;;;;8.08;3.65;;;;;;;17.03;88.95;100620.27;1612476;87;21575;-72
2022/08/22 08:43:25;;;;;;;9.10;3.87;;;;;;;17.07;88.92;100624.20;1591261;89;21118;-72
2022/08/22 08:45:39;;;;;;;5.17;3.47;;;;;;;17.09;88.90;100622.16;1609615;87;21480;-72
2022/08/22 08:48:17;;;;;;;4.83;3.08;;;;;;;17.14;88.91;100615.61;1610788;87;21173;-72
2022/08/22 08:51:09;;;;;;;12.95;3.40;;;;;;;17.13;88.82;100618.02;1612658;88;21049;-72
2022/08/22 08:54:04;;;;;;;5.85;2.77;;;;;;;17.12;88.80;100611.47;1612946;87;21075;-72
2022/08/22 08:56:35;;;;;;;6.12;2.70;;;;;;;17.04;88.74;100609.80;1613708;87;21085;-71
2022/08/22 08:59:36;;;;;;;12.75;6.08;;;;;;;17.01;88.67;100610.22;1613498;87;21092;-75
2022/08/22 09:02:22;;;;;;;9.75;3.62;;;;;;;17.02;88.65;100609.20;1612356;87;21582;-74
2022/08/22 09:05:09;;;;;;;8.75;3.20;;;;;;;16.96;88.58;100605.44;1614246;87;21564;-75
2022/08/22 09:08:12;;;;;;;9.80;3.72;;;;;;;16.94;88.59;100611.56;1612418;87;21069;-74
2022/08/22 09:11:19;;;;;;;8.10;3.27;;;;;;;16.91;88.52;100615.19;1613429;87;21027;-74
2022/08/22 09:13:57;;;;;;;11.48;3.80;;;;;;;16.87;88.50;100622.02;1613826;87;21505;-74
2022/08/22 09:16:47;;;;;;;7.28;3.37;;;;;;;16.81;88.46;100614.77;1607177;87;21746;-74
2022/08/22 09:19:56;;;;;;;6.28;3.25;;;;;;;16.80;88.50;100619.32;1542136;87;21091;-74
2022/08/22 09:22:35;;;;;;;;;;;;;;;16.83;88.51;100610.83;1615249;87;21571;-73
2022/08/22 09:25:41;;;;;;;6.80;3.25;;;;;;;16.78;88.47;100611.14;1637000;86;20221;-73
2022/08/22 09:28:39;;;;;;;6.85;3.60;;;;;;;16.73;88.46;100606.87;1643281;86;21016;-73
2022/08/22 09:31:29;;;;;;;5.25;3.42;;;;;;;16.71;88.48;100607.61;1645179;86;21510;-73
2022/08/22 09:34:31;;;;;;;8.83;3.22;;;;;;;16.69;88.49;100608.31;1656755;86;21174;-73
2022/08/22 09:37:30;;;;;;;8.98;4.00;;;;;;;16.68;88.50;100607.48;1635158;86;20990;-73
2022/08/22 09:40:21;;;;;;;8.55;4.30;;;;;;;16.73;88.55;100612.26;1619094;86;21061;-73
2022/08/22 09:43:09;;;;;;;7.00;3.47;;;;;;;16.74;88.57;100605.84;1638923;86;21091;-73
2022/08/22 09:45:49;;;;;;;6.95;3.90;;;;;;;16.73;88.59;100609.56;1638737;86;21956;-74
2022/08/22 09:48:34;;;;;;;;;;;;;;;16.68;88.57;100609.34;1641905;86;21054;-74
2022/08/22 09:51:39;;;;;;;8.90;4.05;;;;;;;16.67;88.62;100610.39;1623392;86;20770;-73
2022/08/22 09:54:28;;;;;;;6.45;4.17;;;;;;;16.66;88.71;100614.11;1637766;86;21570;-74
2022/08/22 09:57:20;;;;;;;10.35;4.45;;;;;;;16.68;88.74;100614.20;1614209;86;21529;-74
2022/08/22 10:00:14;;;;;;;7.12;4.60;;;;;;;16.67;88.73;100613.92;1635912;86;21378;-73
2022/08/22 10:02:50;;;;;;;7.47;4.33;;;;;;;16.71;88.77;100615.69;1639465;86;21101;-74
2022/08/22 10:05:29;;;;;;;9.23;5.10;;;;;;;16.74;88.80;100610.72;1640892;86;21549;-75
2022/08/22 10:08:18;;;;;;;9.23;4.95;;;;;;;16.74;88.83;100611.23;1637244;86;21578;-74
2022/08/22 10:11:07;;;;;;;9.10;4.95;;;;;;;16.77;88.88;100607.61;1640457;86;21109;-74
2022/08/22 10:13:58;;;;;;;6.85;4.60;;;;;;;16.80;88.94;100605.02;1639600;86;22005;-74
2022/08/22 10:16:55;;;;;;;8.08;4.97;;;;;;;16.85;88.99;100605.25;1639190;86;21069;-75
2022/08/22 10:19:46;;;;;;;5.90;4.33;;;;;;;16.91;89.06;100601.72;1637474;86;21130;-74
2022/08/22 10:22:50;;;;;;;7.62;4.15;;;;;;;16.95;89.10;100605.16;1634289;86;21134;-73
2022/08/22 10:25:43;;;;;;;9.05;4.50;;;;;;;16.98;89.16;100611.47;1632218;86;21166;-73
2022/08/22 10:28:33;;;;;;;4.60;3.75;;;;;;;17.03;89.23;100617.56;1637888;86;21232;-74
2022/08/22 10:31:29;;;;;;;5.65;4.05;;;;;;;17.05;89.27;100616.86;1637657;86;21067;-75
2022/08/22 10:34:18;;;;;;;7.30;3.95;;;;;;;17.05;89.31;100619.55;1637266;86;21061;-75
2022/08/22 10:37:12;;;;;;;5.58;3.35;;;;;;;17.08;89.37;100619.14;1635531;86;21093;-74
2022/08/22 10:40:20;;;;;;;5.28;3.75;;;;;;;17.09;89.40;100622.67;1640611;86;21603;-74
2022/08/22 10:42:53;;;;;;;8.35;3.92;;;;;;;17.07;89.45;100616.13;1660603;86;21181;-74
2022/08/22 10:45:36;;;;;;;5.92;3.58;;;;;;;17.09;89.49;100622.67;1666623;86;21056;-74
2022/08/22 10:48:22;;;;;;;6.35;3.75;;;;;;;17.13;89.53;100626.09;1660237;84;21048;-74
2022/08/22 10:51:03;;;;;;;6.12;4.33;;;;;;;17.13;89.53;100622.05;1652248;86;20964;-74
2022/08/22 10:53:52;;;;;;;6.45;3.87;;;;;;;17.16;89.58;100618.94;1643769;86;21126;-74
2022/08/22 10:56:38;;;;;;;7.53;4.55;;;;;;;17.17;89.61;100613.84;1658370;86;21930;-74
2022/08/22 10:59:31;;;;;;;7.03;3.75;;;;;;;17.16;89.62;100618.94;1652568;86;21076;-74
2022/08/22 11:02:15;;;;;;;8.15;5.12;;;;;;;17.14;89.63;100612.08;1640766;86;20995;-74
2022/08/22 11:04:56;;;;;;;6.12;4.03;;;;;;;17.16;89.69;100616.25;1635664;86;21120;-74
2022/08/22 11:07:43;;;;;;;8.28;4.15;;;;;;;17.17;89.68;100617.88;1633906;86;21061;-74
2022/08/22 11:10:32;;;;;;;6.35;3.72;;;;;;;17.17;89.65;100612.49;1639223;86;21156;-74
2022/08/22 11:13:26;;;;;;;;;;;;;;;17.18;89.64;100614.16;1641232;86;21090;-74
2022/08/22 11:16:01;;;;;;;7.42;3.80;;;;;;;17.15;89.60;100623.18;1643178;86;20191;-74
2022/08/22 11:19:04;;;;;;;8.58;4.30;;;;;;;17.06;89.58;100622.57;1647487;86;21037;-74
2022/08/22 11:21:51;;;;;;;6.75;4.03;;;;;;;17.00;89.57;100623.37;1638704;86;21129;-74
2022/08/22 11:24:51;;;;;;;8.30;4.62;;;;;;;16.96;89.56;100626.16;1642408;85;21323;-74
2022/08/22 11:27:44;;;;;;;5.95;4.25;;;;;;;16.95;89.60;100613.75;1639408;85;21047;-74
2022/08/22 11:30:21;;;;;;;6.75;4.10;;;;;;;16.94;89.59;100620.16;1637000;85;21019;-74
2022/08/22 11:32:59;;;;;;;7.47;3.47;;;;;;;16.94;89.63;100617.47;1642577;85;21572;-74
2022/08/22 11:35:45;;;;;;;7.42;3.92;;;;;;;16.92;89.64;100622.25;1638722;85;21139;-74
2022/08/22 11:38:34;;;;;;;7.35;4.55;;;;;;;16.89;89.64;100622.12;1631005;86;22976;-74
2022/08/22 11:41:33;;;;;;;6.22;4.45;;;;;;;16.86;89.69;100629.27;1633971;85;21581;-75
2022/08/22 11:44:23;;;;;;;7.83;4.72;;;;;;;16.87;89.73;100624.72;1642049;85;21073;-75
2022/08/22 11:46:50;;;;;;;6.80;4.78;;;;;;;16.87;89.78;100633.63;1638096;85;21575;-75
2022/08/22 11:49:45;;;;;;;10.35;3.83;;;;;;;16.86;89.83;100635.17;1632548;85;21105;-74
2022/08/22 11:52:36;;;;;;;6.20;3.90;;;;;;;16.83;89.85;100635.58;1586101;85;21266;-73
2022/08/22 11:55:26;;;;;;;6.58;4.37;;;;;;;16.76;89.87;100628.00;1632455;85;21103;-73
2022/08/22 11:57:57;;;;;;;6.45;4.17;;;;;;;16.73;89.95;100625.73;1627731;85;21073;-73
2022/08/22 12:00:38;;;;;;;7.22;3.95;;;;;;;16.72;89.99;100624.89;1631626;85;21689;-74
2022/08/22 12:03:40;;;;;;;6.10;3.52;;;;;;;16.73;90.01;100626.56;1630101;85;21031;-73
2022/08/22 12:06:35;;;;;;;7.42;4.55;;;;;;;16.70;90.05;100624.80;1655831;85;21103;-73
2022/08/22 12:09:09;;;;;;;6.35;4.10;;;;;;;16.68;90.06;100622.80;1639767;85;21109;-73
2022/08/22 12:12:09;;;;;;;5.75;3.60;;;;;;;16.67;90.15;100626.04;1621811;85;21126;-73
2022/08/22 12:15:06;;;;;;;6.47;4.03;;;;;;;16.67;90.16;100622.00;1645770;85;21762;-73
2022/08/22 12:18:09;;;;;;;6.70;4.20;;;;;;;16.68;90.21;100629.53;1631462;85;21126;-73
2022/08/22 12:20:56;;;;;;;10.50;4.15;;;;;;;16.67;90.24;100629.24;1634813;85;21083;-73
2022/08/22 12:23:39;;;;;;;6.40;4.40;;;;;;;16.63;90.26;100623.95;1640643;85;21039;-73
2022/08/22 12:26:14;;;;;;;7.05;4.12;;;;;;;16.62;90.30;100624.97;1637424;86;21693;-73
2022/08/22 12:29:25;;;;;;;8.20;4.40;;;;;;;16.60;90.33;100625.70;1638458;86;21596;-74
2022/08/22 12:32:12;;;;;;;6.70;3.95;;;;;;;16.59;90.38;100623.52;1634184;86;21064;-75
2022/08/22 12:35:17;;;;;;;8.18;4.37;;;;;;;16.56;90.40;100623.09;1641247;86;21349;-75
2022/08/22 12:38:12;;;;;;;6.92;4.33;;;;;;;16.53;90.48;100618.93;1634248;86;21058;-75
2022/08/22 12:41:17;;;;;;;7.80;4.03;;;;;;;16.52;90.53;100621.81;1633056;86;21054;-76
2022/08/22 12:44:19;;;;;;;6.75;3.77;;;;;;;16.53;90.58;100618.93;1638444;86;21055;-75
2022/08/22 12:47:25;;;;;;;9.00;4.20;;;;;;;16.56;90.62;100620.41;1634879;86;21063;-75
2022/08/22 12:50:12;;;;;;;5.30;3.67;;;;;;;16.58;90.64;100615.64;1636496;86;21180;-75
2022/08/22 12:53:04;;;;;;;8.60;4.12;;;;;;;16.56;90.67;100621.75;1636244;86;21070;-75